Time;durP1;ratioP1;P1;durP2;ratioP2;P2;SDS_P1;SDS_P2;PMS_P1;PMS_P2;Temp;Humidity;BMP_temperature;BMP_pressure;BME280_temperature;BME280_humidity;BME280_pressure;Samples;Min_cycle;Max_cycle;Signal;HPM_P1;HPM_P2
2023/11/11 00:02:10;;;;;;;2.00;0.40;;;8.30;78.90;;;;;;4979064;28;20070;-65
2023/11/11 00:04:35;;;;;;;0.70;0.30;;;8.20;79.80;;;;;;4977029;28;20106;-65
2023/11/11 00:07:01;;;;;;;2.72;0.50;;;8.20;79.10;;;;;;4977645;28;20463;-64
2023/11/11 00:09:27;;;;;;;2.03;0.40;;;8.20;79.40;;;;;;4978411;28;20042;-65
2023/11/11 00:11:55;;;;;;;0.50;0.32;;;8.20;79.60;;;;;;4977374;28;20105;-64
2023/11/11 00:14:21;;;;;;;0.98;0.30;;;8.20;79.80;;;;;;4978196;28;20512;-65
2023/11/11 00:16:46;;;;;;;0.70;0.40;;;8.20;80.00;;;;;;4977667;28;20061;-65
2023/11/11 00:19:13;;;;;;;1.95;0.30;;;8.10;80.30;;;;;;4978875;28;20410;-64
2023/11/11 00:21:41;;;;;;;1.17;0.25;;;8.10;80.80;;;;;;4978672;28;20393;-65
2023/11/11 00:24:11;;;;;;;0.38;0.30;;;8.10;81.80;;;;;;4977681;28;20407;-64
2023/11/11 00:26:39;;;;;;;1.35;0.30;;;8.00;81.40;;;;;;4977044;28;20046;-64
2023/11/11 00:29:04;;;;;;;1.83;0.30;;;8.00;81.30;;;;;;4976762;28;20039;-64
2023/11/11 00:31:31;;;;;;;1.25;0.30;;;7.90;81.80;;;;;;4978235;28;20045;-64
2023/11/11 00:33:58;;;;;;;0.88;0.40;;;7.90;82.00;;;;;;4977421;28;20038;-64
2023/11/11 00:36:25;;;;;;;0.25;0.20;;;7.80;82.00;;;;;;4977745;28;20047;-64
2023/11/11 00:38:50;;;;;;;0.70;0.40;;;7.90;82.40;;;;;;4978897;28;20030;-64
2023/11/11 00:41:16;;;;;;;0.70;0.20;;;7.80;82.50;;;;;;4981442;28;20514;-64
2023/11/11 00:43:41;;;;;;;0.82;0.20;;;7.80;82.70;;;;;;4981538;28;20491;-63
2023/11/11 00:46:07;;;;;;;0.40;0.20;;;7.90;83.40;;;;;;4980698;28;20042;-64
2023/11/11 00:48:33;;;;;;;0.50;0.30;;;7.70;83.20;;;;;;4980150;28;20097;-64
2023/11/11 00:50:58;;;;;;;1.08;0.30;;;7.70;83.50;;;;;;4980852;28;20063;-64
2023/11/11 00:53:24;;;;;;;0.90;0.20;;;7.70;83.30;;;;;;4981046;28;20035;-62
2023/11/11 00:55:50;;;;;;;2.50;0.20;;;7.70;83.60;;;;;;4980601;28;20038;-64
2023/11/11 00:58:16;;;;;;;0.55;0.20;;;7.70;83.80;;;;;;4981612;28;20034;-64
2023/11/11 01:00:43;;;;;;;1.13;0.10;;;7.70;84.00;;;;;;4980971;28;20118;-63
2023/11/11 01:03:09;;;;;;;0.50;0.20;;;7.60;84.10;;;;;;4980421;28;20598;-64
2023/11/11 01:05:35;;;;;;;0.45;0.30;;;7.60;84.00;;;;;;4981130;28;20118;-64
2023/11/11 01:08:01;;;;;;;1.00;0.17;;;7.60;84.20;;;;;;4980081;28;20039;-63
2023/11/11 01:10:27;;;;;;;0.30;0.20;;;7.60;84.30;;;;;;4980349;28;20551;-64
2023/11/11 01:12:55;;;;;;;1.02;0.30;;;7.60;84.60;;;;;;4981103;28;20058;-64
2023/11/11 01:15:21;;;;;;;0.47;0.20;;;7.60;84.70;;;;;;4980805;28;20045;-64
2023/11/11 01:17:46;;;;;;;0.88;0.20;;;7.60;84.90;;;;;;4980530;28;20038;-64
2023/11/11 01:20:13;;;;;;;0.55;0.20;;;7.70;85.00;;;;;;4980740;28;20510;-64
2023/11/11 01:22:39;;;;;;;1.52;0.28;;;7.60;85.00;;;;;;4979889;28;20038;-64
2023/11/11 01:25:07;;;;;;;1.35;0.15;;;7.70;85.00;;;;;;4980115;28;20030;-64
2023/11/11 01:27:33;;;;;;;0.20;0.10;;;7.70;85.20;;;;;;4981439;28;20093;-64
2023/11/11 01:29:59;;;;;;;0.73;0.10;;;7.70;85.90;;;;;;4980834;28;20061;-64
2023/11/11 01:32:25;;;;;;;0.30;0.10;;;7.70;85.20;;;;;;4980194;28;20553;-64
2023/11/11 01:34:52;;;;;;;0.43;0.20;;;7.70;85.10;;;;;;4980364;28;20066;-64
2023/11/11 01:37:18;;;;;;;0.55;0.17;;;7.70;85.30;;;;;;4981177;28;20039;-64
2023/11/11 01:39:44;;;;;;;0.10;0.10;;;7.70;85.90;;;;;;4980596;28;20045;-64
2023/11/11 01:42:10;;;;;;;0.45;0.10;;;7.70;85.30;;;;;;4979722;28;20043;-64
2023/11/11 01:44:35;;;;;;;0.30;0.20;;;7.70;85.70;;;;;;4980448;28;20062;-64
2023/11/11 01:47:04;;;;;;;0.20;0.13;;;7.70;85.50;;;;;;4980035;28;20613;-64
2023/11/11 01:49:30;;;;;;;0.55;0.10;;;7.80;85.70;;;;;;4979735;28;20113;-65
2023/11/11 01:51:56;;;;;;;0.98;0.10;;;7.80;85.90;;;;;;4980529;28;20133;-64
2023/11/11 01:54:22;;;;;;;0.52;0.10;;;7.80;86.00;;;;;;4980068;28;20061;-64
2023/11/11 01:56:50;;;;;;;0.50;0.10;;;7.80;86.40;;;;;;4979489;28;20511;-63
2023/11/11 01:59:17;;;;;;;0.28;0.20;;;7.80;86.20;;;;;;4980093;28;20145;-63
2023/11/11 02:01:49;;;;;;;0.10;0.10;;;7.80;86.20;;;;;;4986527;28;20030;-64
2023/11/11 02:04:15;;;;;;;0.10;0.10;;;7.90;86.40;;;;;;4978756;28;20565;-64
2023/11/11 02:06:41;;;;;;;0.70;0.20;;;7.90;86.60;;;;;;4979974;28;20046;-64
2023/11/11 02:09:07;;;;;;;0.35;0.10;;;7.90;86.40;;;;;;4979700;28;20030;-64
2023/11/11 02:11:33;;;;;;;0.20;0.10;;;7.90;86.30;;;;;;4978306;28;20034;-63
2023/11/11 02:14:00;;;;;;;0.38;0.10;;;7.90;86.20;;;;;;4979952;28;20080;-63
2023/11/11 02:16:27;;;;;;;0.40;0.10;;;7.90;86.40;;;;;;4979465;28;20050;-63
2023/11/11 02:18:53;;;;;;;0.20;0.10;;;7.90;86.40;;;;;;4980459;28;20078;-63
2023/11/11 02:21:18;;;;;;;0.00;0.00;;;8.00;86.40;;;;;;4980594;28;21069;-63
2023/11/11 02:23:48;;;;;;;0.20;0.10;;;8.00;86.40;;;;;;4979910;28;20038;-64
2023/11/11 02:26:13;;;;;;;0.10;0.10;;;8.00;86.40;;;;;;4979908;28;20039;-64
2023/11/11 02:28:39;;;;;;;0.20;0.10;;;8.00;86.40;;;;;;4977068;28;20081;-64
2023/11/11 02:31:05;;;;;;;0.20;0.20;;;8.10;87.20;;;;;;4981812;28;20118;-64
2023/11/11 02:33:31;;;;;;;0.10;0.10;;;8.10;86.20;;;;;;4981280;28;20418;-64
2023/11/11 02:35:56;;;;;;;0.32;0.20;;;8.10;86.20;;;;;;4981260;28;20093;-64
2023/11/11 02:38:22;;;;;;;0.77;0.15;;;8.20;86.20;;;;;;4980677;28;20047;-64
2023/11/11 02:40:48;;;;;;;0.30;0.10;;;8.10;86.90;;;;;;4980060;28;20406;-64
2023/11/11 02:43:13;;;;;;;0.20;0.10;;;8.20;86.00;;;;;;4980448;28;20034;-63
2023/11/11 02:45:40;;;;;;;0.30;0.10;;;8.20;85.80;;;;;;4980351;28;20030;-64
2023/11/11 02:48:06;;;;;;;2.53;0.10;;;8.10;85.60;;;;;;4978658;28;20054;-63
2023/11/11 02:50:32;;;;;;;0.65;0.10;;;8.10;85.50;;;;;;4978440;28;20125;-64
2023/11/11 02:52:57;;;;;;;0.10;0.00;;;8.10;85.30;;;;;;4979476;28;20180;-64
2023/11/11 02:55:23;;;;;;;0.45;0.10;;;8.20;85.30;;;;;;4979157;28;20808;-63
2023/11/11 02:57:49;;;;;;;0.00;0.00;;;8.10;85.30;;;;;;4979043;28;20087;-64
2023/11/11 03:00:15;;;;;;;0.00;0.00;;;8.10;85.30;;;;;;4978523;28;20049;-64
2023/11/11 03:02:40;;;;;;;0.00;0.00;;;8.10;85.30;;;;;;4977725;28;20042;-64
2023/11/11 03:05:07;;;;;;;0.30;0.00;;;8.10;85.20;;;;;;4978398;28;20309;-64
2023/11/11 03:07:34;;;;;;;0.00;0.00;;;8.10;85.30;;;;;;4977418;28;20528;-64
2023/11/11 03:10:04;;;;;;;0.10;0.00;;;8.00;85.10;;;;;;4978361;28;20038;-64
2023/11/11 03:12:30;;;;;;;0.35;0.10;;;8.00;85.10;;;;;;4979318;28;20066;-64
2023/11/11 03:14:56;;;;;;;0.00;0.00;;;8.00;85.20;;;;;;4978121;28;20035;-64
2023/11/11 03:17:23;;;;;;;0.20;0.00;;;8.00;85.20;;;;;;4978923;28;20042;-64
2023/11/11 03:19:49;;;;;;;0.00;0.00;;;8.00;85.30;;;;;;4978669;28;20070;-64
2023/11/11 03:22:14;;;;;;;0.10;0.10;;;8.00;85.30;;;;;;4977800;28;20066;-64
2023/11/11 03:24:41;;;;;;;0.35;0.10;;;8.00;85.30;;;;;;4978467;28;20037;-64
2023/11/11 03:27:06;;;;;;;0.03;0.03;;;8.00;85.50;;;;;;4978508;28;20031;-64
2023/11/11 03:29:32;;;;;;;0.17;0.00;;;8.00;85.50;;;;;;4978617;28;20081;-64
2023/11/11 03:31:58;;;;;;;0.15;0.10;;;8.00;86.60;;;;;;4978858;28;20034;-64
2023/11/11 03:34:23;;;;;;;0.20;0.20;;;8.00;85.90;;;;;;4978523;28;20066;-64
2023/11/11 03:36:49;;;;;;;0.30;0.10;;;8.00;85.90;;;;;;4978120;28;20037;-64
2023/11/11 03:39:14;;;;;;;0.00;0.00;;;8.00;85.80;;;;;;4977843;28;20031;-63
2023/11/11 03:41:40;;;;;;;0.00;0.00;;;8.00;85.70;;;;;;4977793;28;20082;-64
2023/11/11 03:44:08;;;;;;;0.28;0.00;;;8.10;85.80;;;;;;4978397;28;20066;-64
2023/11/11 03:46:34;;;;;;;0.73;0.10;;;8.10;85.70;;;;;;4977770;28;20034;-64
2023/11/11 03:49:00;;;;;;;0.10;0.00;;;8.10;85.60;;;;;;4978487;28;20457;-63
2023/11/11 03:51:25;;;;;;;0.10;0.10;;;8.10;85.60;;;;;;4978555;28;20046;-64
2023/11/11 03:53:51;;;;;;;0.13;0.10;;;8.10;85.70;;;;;;4977800;28;20495;-63
2023/11/11 03:56:20;;;;;;;0.40;0.10;;;8.10;85.80;;;;;;4977502;28;20048;-64
2023/11/11 03:58:50;;;;;;;0.47;0.10;;;8.10;86.00;;;;;;4976776;28;20035;-63
2023/11/11 04:01:15;;;;;;;0.30;0.10;;;8.10;86.10;;;;;;4960717;28;20030;-63
2023/11/11 04:03:43;;;;;;;0.00;0.00;;;8.10;86.00;;;;;;4977501;28;20089;-63
2023/11/11 04:06:12;;;;;;;0.98;0.10;;;8.10;86.20;;;;;;4977167;28;20038;-63
2023/11/11 04:08:39;;;;;;;0.20;0.10;;;8.10;86.00;;;;;;4977575;28;20057;-63
2023/11/11 04:11:07;;;;;;;0.20;0.10;;;8.10;86.00;;;;;;4978595;28;20026;-63
2023/11/11 04:13:40;;;;;;;1.25;0.20;;;8.10;86.00;;;;;;4980106;28;20371;-64
2023/11/11 04:16:09;;;;;;;0.10;0.10;;;8.10;86.20;;;;;;4981157;28;20073;-63
2023/11/11 04:18:36;;;;;;;0.43;0.20;;;8.10;86.00;;;;;;4981430;28;20042;-63
2023/11/11 04:21:02;;;;;;;0.10;0.10;;;8.00;86.00;;;;;;4982133;28;20042;-63
2023/11/11 04:23:28;;;;;;;0.30;0.00;;;8.00;86.00;;;;;;4981796;28;20093;-64
2023/11/11 04:25:58;;;;;;;0.10;0.10;;;8.00;85.90;;;;;;4970128;28;20030;-63
2023/11/11 04:28:25;;;;;;;0.20;0.10;;;8.00;86.10;;;;;;4981027;28;20280;-64
2023/11/11 04:30:51;;;;;;;0.10;0.10;;;8.00;85.90;;;;;;4981660;28;20110;-64
2023/11/11 04:33:17;;;;;;;0.30;0.10;;;8.00;85.90;;;;;;4981938;28;20475;-63
2023/11/11 04:35:43;;;;;;;0.65;0.22;;;8.00;85.80;;;;;;4981514;28;20105;-64
2023/11/11 04:38:09;;;;;;;0.40;0.15;;;8.00;85.80;;;;;;4981068;28;20380;-63
2023/11/11 04:40:38;;;;;;;0.77;0.30;;;8.00;85.80;;;;;;4980795;28;20096;-63
2023/11/11 04:43:04;;;;;;;0.52;0.30;;;8.00;85.70;;;;;;4981545;28;20043;-63
2023/11/11 04:45:30;;;;;;;0.40;0.20;;;8.00;85.60;;;;;;4980993;28;20416;-64
2023/11/11 04:47:56;;;;;;;0.30;0.20;;;8.00;85.60;;;;;;4980834;28;20568;-63
2023/11/11 04:50:23;;;;;;;0.52;0.30;;;8.00;85.60;;;;;;4981276;28;20046;-63
2023/11/11 04:52:48;;;;;;;0.20;0.20;;;8.00;85.50;;;;;;4981882;28;20030;-63
2023/11/11 04:55:14;;;;;;;0.30;0.30;;;8.00;85.50;;;;;;4981278;28;20041;-63
2023/11/11 04:57:40;;;;;;;1.17;0.40;;;8.00;85.30;;;;;;4980674;28;20038;-64
2023/11/11 05:00:09;;;;;;;0.40;0.40;;;8.10;85.30;;;;;;4981810;28;20464;-63
2023/11/11 05:02:39;;;;;;;0.60;0.40;;;8.10;85.30;;;;;;4980350;28;20066;-63
2023/11/11 05:05:10;;;;;;;0.30;0.30;;;8.10;85.90;;;;;;4980264;28;20058;-63
2023/11/11 05:07:40;;;;;;;0.43;0.43;;;8.10;85.30;;;;;;4981385;28;20034;-64
2023/11/11 05:10:09;;;;;;;0.95;0.50;;;8.10;85.30;;;;;;4981011;28;20038;-63
2023/11/11 05:12:37;;;;;;;0.63;0.50;;;8.10;85.20;;;;;;4982504;28;20035;-64
2023/11/11 05:15:13;;;;;;;1.33;0.40;;;8.10;85.20;;;;;;4979959;28;20035;-64
2023/11/11 05:17:41;;;;;;;0.55;0.45;;;8.10;85.00;;;;;;4980569;28;20120;-64
2023/11/11 05:20:10;;;;;;;1.40;0.70;;;8.10;85.00;;;;;;4980823;28;20126;-63
2023/11/11 05:22:37;;;;;;;1.45;0.77;;;8.10;84.80;;;;;;4980214;28;20502;-63
2023/11/11 05:25:02;;;;;;;1.40;0.60;;;8.10;84.80;;;;;;4979029;28;20110;-64
2023/11/11 05:27:28;;;;;;;1.15;0.60;;;8.10;84.60;;;;;;4980507;28;20142;-64
2023/11/11 05:29:54;;;;;;;1.08;0.60;;;8.10;84.50;;;;;;4980167;28;20050;-63
2023/11/11 05:32:20;;;;;;;0.88;0.60;;;8.10;84.50;;;;;;4981706;28;20177;-63
2023/11/11 05:34:45;;;;;;;1.05;0.70;;;8.10;84.30;;;;;;4980291;28;20580;-63
2023/11/11 05:37:11;;;;;;;1.33;0.70;;;8.10;84.30;;;;;;4962753;28;20057;-64
2023/11/11 05:39:36;;;;;;;1.55;0.80;;;8.10;84.30;;;;;;4980483;28;20058;-64
2023/11/11 05:42:02;;;;;;;0.80;0.60;;;8.10;84.30;;;;;;4981007;28;20039;-64
2023/11/11 05:44:30;;;;;;;1.05;0.63;;;8.00;84.10;;;;;;4962597;28;20031;-64
2023/11/11 05:46:56;;;;;;;2.35;0.80;;;8.10;84.10;;;;;;4980275;28;20550;-64
2023/11/11 05:49:21;;;;;;;1.20;0.80;;;8.00;84.00;;;;;;4980231;28;20255;-64
2023/11/11 05:51:48;;;;;;;2.15;0.70;;;8.00;84.00;;;;;;4981138;28;20105;-64
2023/11/11 05:54:14;;;;;;;1.15;0.80;;;8.00;83.90;;;;;;4980074;28;20113;-63
2023/11/11 05:56:41;;;;;;;1.25;0.70;;;8.00;84.00;;;;;;4979907;28;20122;-63
2023/11/11 05:59:07;;;;;;;1.40;0.82;;;8.00;83.90;;;;;;4980718;28;20026;-64
2023/11/11 06:01:33;;;;;;;2.20;1.17;;;8.00;83.80;;;;;;4980448;28;20121;-64
2023/11/11 06:03:58;;;;;;;1.45;1.10;;;8.00;83.70;;;;;;4979456;28;20049;-64
2023/11/11 06:06:24;;;;;;;2.53;1.10;;;8.00;83.60;;;;;;4979774;28;20129;-64
2023/11/11 06:08:50;;;;;;;1.15;1.02;;;8.00;83.40;;;;;;4979534;28;20042;-64
2023/11/11 06:11:16;;;;;;;1.75;1.00;;;8.00;83.30;;;;;;4978545;28;20046;-64
2023/11/11 06:13:42;;;;;;;1.00;0.65;;;8.00;83.20;;;;;;4979823;28;20069;-64
2023/11/11 06:16:09;;;;;;;1.05;0.70;;;8.00;83.10;;;;;;4963149;28;20038;-63
2023/11/11 06:18:35;;;;;;;0.70;0.70;;;8.00;83.10;;;;;;4960960;28;20685;-64
2023/11/11 06:21:01;;;;;;;2.92;1.10;;;8.00;83.10;;;;;;4979315;28;20069;-64
2023/11/11 06:23:26;;;;;;;1.35;0.80;;;7.90;82.90;;;;;;4979972;28;20431;-64
2023/11/11 06:25:52;;;;;;;1.23;0.70;;;7.90;82.90;;;;;;4978085;28;20046;-64
2023/11/11 06:28:17;;;;;;;2.03;0.80;;;7.90;82.90;;;;;;4979180;28;20031;-64
2023/11/11 06:30:43;;;;;;;1.50;0.95;;;7.90;82.70;;;;;;4979281;28;20121;-64
2023/11/11 06:33:09;;;;;;;2.42;0.93;;;7.90;82.60;;;;;;4979162;28;20093;-64
2023/11/11 06:35:34;;;;;;;1.05;0.90;;;7.90;82.60;;;;;;4978256;28;20049;-64
2023/11/11 06:38:00;;;;;;;2.55;1.00;;;7.90;82.60;;;;;;4977987;28;20039;-64
2023/11/11 06:40:27;;;;;;;0.80;0.80;;;7.80;82.50;;;;;;4978730;28;20047;-64
2023/11/11 06:42:56;;;;;;;1.65;1.13;;;7.80;82.50;;;;;;4978779;28;20038;-64
2023/11/11 06:45:22;;;;;;;1.50;0.90;;;7.80;82.50;;;;;;4961208;28;20042;-64
2023/11/11 06:47:48;;;;;;;1.63;1.20;;;7.80;82.60;;;;;;4978872;28;20057;-64
2023/11/11 06:50:17;;;;;;;0.90;0.70;;;7.80;82.60;;;;;;4978931;28;20284;-64
2023/11/11 06:52:43;;;;;;;1.20;0.93;;;7.80;82.60;;;;;;4978244;28;20042;-64
2023/11/11 06:55:09;;;;;;;1.13;0.90;;;7.70;82.60;;;;;;4977923;28;20031;-64
2023/11/11 06:57:41;;;;;;;5.13;1.42;;;7.70;82.50;;;;;;5073088;28;20840;-63
2023/11/11 07:00:15;;;;;;;2.78;1.40;;;7.70;82.50;;;;;;5072951;28;20037;-63
2023/11/11 07:02:41;;;;;;;1.10;0.90;;;7.70;82.50;;;;;;5072832;28;20029;-63
2023/11/11 07:05:10;;;;;;;1.08;0.75;;;7.70;82.40;;;;;;5072693;28;20280;-63
2023/11/11 07:07:36;;;;;;;1.15;0.90;;;7.60;82.30;;;;;;5071704;28;20039;-64
2023/11/11 07:10:01;;;;;;;1.92;0.77;;;7.60;82.40;;;;;;5071982;28;20091;-63
2023/11/11 07:12:27;;;;;;;2.22;0.77;;;7.60;82.30;;;;;;5067831;28;20025;-64
2023/11/11 07:14:53;;;;;;;1.83;0.65;;;7.60;82.30;;;;;;5069588;28;20028;-62
2023/11/11 07:17:19;;;;;;;0.88;0.80;;;7.60;82.40;;;;;;5071044;28;20037;-63
2023/11/11 07:19:44;;;;;;;0.73;0.73;;;7.60;82.50;;;;;;5049295;28;20039;-63
2023/11/11 07:22:10;;;;;;;1.00;0.80;;;7.60;82.60;;;;;;5064578;28;20033;-63
2023/11/11 07:24:36;;;;;;;1.38;0.98;;;7.70;82.70;;;;;;5057352;28;20036;-63
2023/11/11 07:27:01;;;;;;;1.40;0.95;;;7.70;82.70;;;;;;5066197;28;20025;-63
2023/11/11 07:29:28;;;;;;;1.92;1.10;;;7.70;82.60;;;;;;5067994;28;20036;-63
2023/11/11 07:31:54;;;;;;;1.75;1.00;;;7.70;82.60;;;;;;5063057;28;20625;-63
2023/11/11 07:34:20;;;;;;;1.65;1.27;;;7.70;83.40;;;;;;5066116;28;20159;-63
2023/11/11 07:36:46;;;;;;;3.33;1.08;;;7.70;82.70;;;;;;5066832;28;20044;-63
2023/11/11 07:39:13;;;;;;;1.55;1.00;;;7.70;82.80;;;;;;5066163;28;20028;-63
2023/11/11 07:41:39;;;;;;;1.13;0.90;;;7.70;82.90;;;;;;5067336;28;20218;-63
2023/11/11 07:44:06;;;;;;;1.13;1.02;;;7.70;82.90;;;;;;5069088;28;20037;-63
2023/11/11 07:46:32;;;;;;;1.88;1.00;;;7.70;83.10;;;;;;5065312;28;20046;-63
2023/11/11 07:48:59;;;;;;;1.58;1.10;;;7.70;83.10;;;;;;5062359;28;20040;-63
2023/11/11 07:51:25;;;;;;;1.10;1.00;;;7.70;83.30;;;;;;5067539;28;20493;-63
2023/11/11 07:53:51;;;;;;;1.58;0.82;;;7.70;83.30;;;;;;5066904;28;20503;-63
2023/11/11 07:56:17;;;;;;;6.40;1.38;;;7.70;83.30;;;;;;5059459;28;20037;-64
2023/11/11 07:58:42;;;;;;;2.13;1.35;;;7.70;83.40;;;;;;5060918;28;20492;-63
2023/11/11 08:01:08;;;;;;;1.10;1.00;;;7.80;83.40;;;;;;5056166;28;20049;-63
2023/11/11 08:03:34;;;;;;;1.30;1.02;;;7.80;83.40;;;;;;5064721;28;20029;-63
2023/11/11 08:05:59;;;;;;;1.52;0.82;;;7.80;83.40;;;;;;5062742;28;20502;-63
2023/11/11 08:08:26;;;;;;;1.13;1.02;;;7.80;83.40;;;;;;5052076;28;20040;-62
2023/11/11 08:10:52;;;;;;;1.10;1.00;;;7.80;83.30;;;;;;5052241;28;20508;-64
2023/11/11 08:13:18;;;;;;;3.17;1.17;;;7.90;83.40;;;;;;5045994;28;20129;-63
2023/11/11 08:15:44;;;;;;;1.55;1.00;;;7.90;83.30;;;;;;5053382;28;20098;-64
2023/11/11 08:18:10;;;;;;;1.33;1.10;;;7.90;83.20;;;;;;5053102;28;20040;-63
2023/11/11 08:20:35;;;;;;;1.67;0.90;;;8.00;83.20;;;;;;5054794;28;20029;-64
2023/11/11 08:23:02;;;;;;;1.42;1.10;;;8.00;83.30;;;;;;5053600;28;20439;-64
2023/11/11 08:25:28;;;;;;;2.25;1.10;;;8.10;83.20;;;;;;5048122;28;20037;-63
2023/11/11 08:27:55;;;;;;;1.63;1.00;;;8.10;83.20;;;;;;5052356;28;20079;-63
2023/11/11 08:30:22;;;;;;;1.35;1.13;;;8.10;83.10;;;;;;5049223;28;20532;-64
2023/11/11 08:32:48;;;;;;;1.75;1.10;;;8.20;83.10;;;;;;5046814;28;20116;-63
2023/11/11 08:35:15;;;;;;;1.70;0.98;;;8.20;82.90;;;;;;5048426;28;20029;-64
2023/11/11 08:37:45;;;;;;;2.22;0.77;;;8.30;82.90;;;;;;5053957;28;20033;-63
2023/11/11 08:40:11;;;;;;;1.55;1.13;;;8.30;82.60;;;;;;5053529;28;20523;-63
2023/11/11 08:42:39;;;;;;;1.20;1.10;;;8.40;82.50;;;;;;5049219;28;20040;-63
2023/11/11 08:45:10;;;;;;;1.58;1.02;;;8.40;82.30;;;;;;5049815;28;20063;-63
2023/11/11 08:47:37;;;;;;;2.28;1.02;;;8.40;82.20;;;;;;5045826;28;20512;-64
2023/11/11 08:50:06;;;;;;;1.30;0.73;;;8.40;82.10;;;;;;5052373;28;20581;-63
2023/11/11 08:52:33;;;;;;;2.75;0.90;;;8.50;82.00;;;;;;5051680;28;20040;-63
2023/11/11 08:54:59;;;;;;;1.98;0.90;;;8.50;81.90;;;;;;5050945;28;20463;-63
2023/11/11 08:57:25;;;;;;;1.10;0.98;;;8.60;81.40;;;;;;5050284;28;20087;-64
2023/11/11 08:59:51;;;;;;;1.27;0.80;;;8.60;81.30;;;;;;5046601;28;20044;-64
2023/11/11 09:02:17;;;;;;;2.45;1.23;;;8.60;81.00;;;;;;5047816;28;20114;-64
2023/11/11 09:04:42;;;;;;;1.95;0.82;;;8.70;80.80;;;;;;5050839;28;20040;-63
2023/11/11 09:07:08;;;;;;;1.40;1.10;;;8.70;81.00;;;;;;5051177;28;20036;-63
2023/11/11 09:09:34;;;;;;;1.75;1.00;;;8.70;80.70;;;;;;5049776;28;20037;-63
2023/11/11 09:12:01;;;;;;;1.33;1.23;;;8.80;80.50;;;;;;5051032;28;20641;-63
2023/11/11 09:14:33;;;;;;;1.17;1.00;;;8.90;80.30;;;;;;5050059;28;20029;-63
2023/11/11 09:16:59;;;;;;;2.45;1.10;;;8.80;80.10;;;;;;5048196;28;20047;-63
2023/11/11 09:19:25;;;;;;;1.10;0.98;;;8.90;80.20;;;;;;5050534;28;20098;-64
2023/11/11 09:21:51;;;;;;;1.58;1.00;;;9.00;80.10;;;;;;5051563;28;20033;-63
2023/11/11 09:24:16;;;;;;;1.55;0.85;;;9.00;80.00;;;;;;5053099;28;20032;-63
2023/11/11 09:26:42;;;;;;;1.35;1.00;;;9.00;79.70;;;;;;5051933;28;20040;-63
2023/11/11 09:29:08;;;;;;;1.92;1.40;;;9.10;79.90;;;;;;5051071;28;20037;-63
2023/11/11 09:31:33;;;;;;;1.55;1.17;;;9.10;80.00;;;;;;5049705;28;20258;-64
2023/11/11 09:34:02;;;;;;;3.50;1.38;;;9.20;79.70;;;;;;5051464;28;20037;-63
2023/11/11 09:36:30;;;;;;;1.05;0.80;;;9.20;78.60;;;;;;5049063;28;20029;-63
2023/11/11 09:38:56;;;;;;;1.40;1.08;;;9.30;78.70;;;;;;5051047;28;20033;-63
2023/11/11 09:41:22;;;;;;;1.25;0.82;;;9.30;78.30;;;;;;5047163;28;20405;-63
2023/11/11 09:43:49;;;;;;;1.35;0.80;;;9.30;78.20;;;;;;5052862;28;20400;-63
2023/11/11 09:46:16;;;;;;;1.67;0.85;;;9.40;78.00;;;;;;5048203;28;20044;-64
2023/11/11 09:48:42;;;;;;;2.15;0.90;;;9.40;77.60;;;;;;5050743;28;20495;-63
2023/11/11 09:51:09;;;;;;;2.00;1.02;;;9.50;77.70;;;;;;5048640;28;20496;-63
2023/11/11 09:53:36;;;;;;;2.53;0.88;;;9.40;76.90;;;;;;5051036;28;20502;-64
2023/11/11 09:56:05;;;;;;;1.42;0.82;;;9.50;77.00;;;;;;5051234;28;20033;-64
2023/11/11 09:58:33;;;;;;;2.28;1.10;;;9.50;76.80;;;;;;5051010;28;20060;-63
2023/11/11 10:00:59;;;;;;;1.05;0.80;;;9.60;78.00;;;;;;5042625;28;20086;-64
2023/11/11 10:03:24;;;;;;;2.15;1.00;;;9.60;76.90;;;;;;5050405;28;20029;-63
2023/11/11 10:05:50;;;;;;;2.33;0.90;;;9.70;76.40;;;;;;5050671;28;20033;-64
2023/11/11 10:08:16;;;;;;;1.70;0.82;;;9.70;75.90;;;;;;5049852;28;20025;-64
2023/11/11 10:10:42;;;;;;;1.13;0.70;;;9.80;75.10;;;;;;5046889;28;20065;-64
2023/11/11 10:13:08;;;;;;;1.30;0.70;;;9.80;75.20;;;;;;5047125;28;20449;-63
2023/11/11 10:15:33;;;;;;;1.33;0.80;;;9.90;74.70;;;;;;5049244;28;20033;-63
2023/11/11 10:18:03;;;;;;;1.30;0.80;;;9.90;72.60;;;;;;5051356;28;20028;-64
2023/11/11 10:20:30;;;;;;;0.90;0.80;;;9.90;73.40;;;;;;5050308;28;20045;-63
2023/11/11 10:22:57;;;;;;;1.25;1.00;;;9.90;73.10;;;;;;5049398;28;20052;-64
2023/11/11 10:25:22;;;;;;;1.77;0.80;;;10.00;72.40;;;;;;5052356;28;20485;-64
2023/11/11 10:27:53;;;;;;;2.28;0.80;;;10.00;73.50;;;;;;5054068;28;20033;-64
2023/11/11 10:30:23;;;;;;;1.52;0.90;;;10.00;73.30;;;;;;5055534;28;20025;-64
2023/11/11 10:32:50;;;;;;;1.23;0.70;;;10.10;73.20;;;;;;5054315;28;20029;-63
2023/11/11 10:35:17;;;;;;;0.90;0.80;;;10.10;73.00;;;;;;5054328;28;20628;-64
2023/11/11 10:37:43;;;;;;;1.05;0.90;;;10.10;71.60;;;;;;5054235;28;20078;-64
2023/11/11 10:40:10;;;;;;;1.35;1.15;;;10.20;71.60;;;;;;5052096;28;20032;-64
2023/11/11 10:42:35;;;;;;;0.93;0.73;;;10.20;70.10;;;;;;5055435;28;20037;-64
2023/11/11 10:45:04;;;;;;;0.85;0.80;;;10.10;69.10;;;;;;5054120;28;20036;-64
2023/11/11 10:47:34;;;;;;;0.95;0.68;;;10.10;69.20;;;;;;5055762;28;20044;-64
2023/11/11 10:50:00;;;;;;;1.52;0.60;;;10.10;69.90;;;;;;5054032;28;20040;-64
2023/11/11 10:52:27;;;;;;;2.30;0.88;;;10.00;69.30;;;;;;5053819;28;20021;-64
2023/11/11 10:54:56;;;;;;;0.82;0.68;;;10.10;70.10;;;;;;5055678;28;20044;-63
2023/11/11 10:57:23;;;;;;;0.82;0.50;;;10.10;70.40;;;;;;5056131;28;20087;-63
2023/11/11 10:59:49;;;;;;;1.00;0.70;;;10.10;70.40;;;;;;5054633;28;20041;-63
2023/11/11 11:02:14;;;;;;;1.48;0.82;;;10.10;70.30;;;;;;5051401;28;20052;-64
2023/11/11 11:04:46;;;;;;;0.95;0.85;;;10.00;71.50;;;;;;5055215;28;20040;-64
2023/11/11 11:07:18;;;;;;;1.45;1.25;;;10.00;70.20;;;;;;5056451;28;20119;-64
2023/11/11 11:09:56;;;;;;;3.55;1.30;;;10.00;70.70;;;;;;5056653;28;20508;-64
2023/11/11 11:12:45;;;;;;;2.00;1.08;;;10.00;70.80;;;;;;5054816;28;20032;-64
2023/11/11 11:15:13;;;;;;;1.40;1.10;;;9.90;70.60;;;;;;5056248;28;20093;-64
2023/11/11 11:17:47;;;;;;;2.35;1.48;;;9.90;71.20;;;;;;5056418;28;20116;-63
2023/11/11 11:20:14;;;;;;;2.33;1.20;;;9.90;71.60;;;;;;5055828;28;20123;-63
2023/11/11 11:22:44;;;;;;;1.85;1.10;;;9.90;72.00;;;;;;5055416;28;20039;-64
2023/11/11 11:25:36;;;;;;;4.60;1.35;;;9.80;71.90;;;;;;5055630;28;20437;-64
2023/11/11 11:28:14;;;;;;;1.90;0.90;;;9.80;72.00;;;;;;5056451;28;20404;-64
2023/11/11 11:30:50;;;;;;;1.90;1.00;;;9.90;72.30;;;;;;5055910;28;20035;-64
2023/11/11 11:33:26;;;;;;;1.35;0.93;;;9.90;72.70;;;;;;5055196;28;20080;-64
2023/11/11 11:35:54;;;;;;;4.07;1.02;;;10.00;72.10;;;;;;5055921;28;20033;-64
2023/11/11 11:38:27;;;;;;;0.60;0.60;;;10.00;72.30;;;;;;5055876;28;20039;-64
2023/11/11 11:41:05;;;;;;;1.00;0.80;;;10.00;71.50;;;;;;5053927;28;20040;-63
2023/11/11 11:43:34;;;;;;;1.33;0.88;;;10.00;71.30;;;;;;5057681;28;20041;-64
2023/11/11 11:46:01;;;;;;;3.55;0.90;;;10.10;70.90;;;;;;5058731;28;20503;-64
2023/11/11 11:48:29;;;;;;;1.23;0.90;;;10.10;70.20;;;;;;5058704;28;20385;-64
2023/11/11 11:51:14;;;;;;;1.27;0.73;;;10.00;70.60;;;;;;5059039;28;20480;-64
2023/11/11 11:53:42;;;;;;;4.13;1.20;;;10.10;70.40;;;;;;5055072;28;20044;-63
2023/11/11 11:56:11;;;;;;;5.07;1.17;;;10.10;71.20;;;;;;5051630;28;20044;-64
2023/11/11 11:58:48;;;;;;;3.13;1.95;;;10.10;71.30;;;;;;5049329;28;20029;-64
2023/11/11 12:01:31;;;;;;;0.95;0.85;;;10.10;70.70;;;;;;5057811;28;20056;-64
2023/11/11 12:03:58;;;;;;;1.02;0.80;;;10.10;69.90;;;;;;5059103;28;20120;-64
2023/11/11 12:06:26;;;;;;;1.58;0.80;;;10.10;70.00;;;;;;5057803;28;20567;-64
2023/11/11 12:08:52;;;;;;;1.10;0.77;;;10.10;69.90;;;;;;5058851;28;20127;-64
2023/11/11 12:11:26;;;;;;;1.10;0.80;;;10.10;69.80;;;;;;5053877;28;20127;-64
2023/11/11 12:13:53;;;;;;;2.65;1.27;;;10.10;69.70;;;;;;5057800;28;20108;-63
2023/11/11 12:16:19;;;;;;;1.92;1.05;;;10.20;70.00;;;;;;5057678;28;20032;-63
2023/11/11 12:18:48;;;;;;;1.27;1.00;;;10.10;69.10;;;;;;5056943;28;20040;-64
2023/11/11 12:21:18;;;;;;;2.22;0.85;;;10.20;67.50;;;;;;5057992;28;20033;-64
2023/11/11 12:23:44;;;;;;;1.60;0.80;;;10.10;67.60;;;;;;5058954;28;20397;-64
2023/11/11 12:26:10;;;;;;;1.98;0.90;;;10.10;68.00;;;;;;5058199;28;20492;-64
2023/11/11 12:28:36;;;;;;;1.98;1.20;;;10.10;66.40;;;;;;5058815;28;20111;-64
2023/11/11 12:31:05;;;;;;;1.15;0.85;;;10.10;66.90;;;;;;5056079;28;20455;-64
2023/11/11 12:33:32;;;;;;;2.42;1.35;;;10.10;67.30;;;;;;5057905;28;20082;-64
2023/11/11 12:35:58;;;;;;;1.35;0.90;;;10.00;66.90;;;;;;5057354;28;20033;-64
2023/11/11 12:38:28;;;;;;;1.95;1.00;;;10.00;66.50;;;;;;5057944;28;20035;-64
2023/11/11 12:40:55;;;;;;;1.55;0.82;;;10.00;66.20;;;;;;5057415;28;20044;-63
2023/11/11 12:43:22;;;;;;;3.10;0.90;;;9.90;66.70;;;;;;5056511;28;20037;-64
2023/11/11 12:45:52;;;;;;;1.58;0.90;;;9.80;66.70;;;;;;5055264;28;20118;-64
2023/11/11 12:48:18;;;;;;;1.73;1.10;;;9.80;66.70;;;;;;5054700;28;20116;-64
2023/11/11 12:50:44;;;;;;;3.60;1.35;;;9.80;66.70;;;;;;5055494;28;20036;-64
2023/11/11 12:53:11;;;;;;;1.83;1.20;;;9.70;66.70;;;;;;5056506;28;20040;-64
2023/11/11 12:55:43;;;;;;;1.73;0.90;;;9.70;67.20;;;;;;5057246;28;20033;-64